ADDS METAR Data INFO
IDs: Format: Raw Decoded Include TAF

Data at: 1439 UTC 22 Feb 2018

KWVI 221353Z AUTO 00000KT 9SM SCT049 03/02 A3023 RMK AO2 RAE14 SLP238 P0000 T00330022
KWVI 221301Z AUTO 21003KT 6SM -RA BR SCT029 OVC037 04/03 A3022 RMK AO2 P0000 T00440033
KWVI 221253Z AUTO 31005KT 5SM -RA BR BKN029 BKN036 OVC045 04/03 A3023 RMK AO2 RAB37 SLP237 P0000 T00440028
KWVI 221153Z AUTO 01003KT 9SM SCT037 BKN044 03/02 A3021 RMK AO2 SLP232 T00330017 10050 20017 58004
KWVI 221053Z AUTO 30005KT 9SM CLR 02/01 A3022 RMK AO2 SLP234 T00220006
KWVI 220953Z AUTO 33003KT 9SM CLR 03/01 A3023 RMK AO2 SLP236 T00280006
KWVI 220853Z AUTO 31004KT 9SM CLR 03/01 A3023 RMK AO2 SLP236 T00330006 50007
KWVI 220753Z AUTO 31005KT 10SM CLR 04/01 A3023 RMK AO2 SLP238 T00390006 401390000
KWVI 220653Z AUTO 32004KT 9SM CLR 04/01 A3022 RMK AO2 SLP233 T00390011
KWVI 220553Z AUTO 32004KT 9SM CLR 05/02 A3021 RMK AO2 SLP229 T00500017 10128 20050 51012
KWVI 220453Z AUTO 32004KT 9SM CLR 06/02 A3020 RMK AO2 SLP228 T00560022
KWVI 220353Z AUTO 33004KT 9SM CLR 07/03 A3019 RMK AO2 SLP223 T00670028
KWVI 212353Z AUTO 25008KT 10SM FEW070 13/M01 A3017 RMK AO2 SLP217 T01281011 10139 20083 56003
KWVI 212253Z AUTO 24010KT 10SM CLR 12/M01 A3017 RMK AO2 SLP217 T01221011
KWVI 212153Z AUTO 20009KT 10SM FEW065 13/00 A3017 RMK AO2 SLP216 T01330000
KWVI 212053Z AUTO VRB05KT 10SM CLR 13/01 A3018 RMK AO2 SLP220 T01330006 58009
KWVI 211953Z AUTO 18006KT 10SM CLR 12/M03 A3020 RMK AO2 SLP226 T01221028
KWVI 211853Z AUTO 07003KT 10SM CLR 11/01 A3021 RMK AO2 SLP229 T01060006
KWVI 211753Z AUTO 12005KT 10SM CLR 08/00 A3021 RMK AO2 SLP229 T00830000 10083 20000 50002
KWVI 211653Z AUTO 06004KT 10SM FEW070 06/M02 A3021 RMK AO2 SLP232 T00561017
KWVI 211553Z AUTO 08004KT 10SM CLR 03/M02 A3021 RMK AO2 SLP229 T00281017
KWVI 211453Z AUTO 00000KT 9SM FEW085 02/M02 A3020 RMK AO2 SLP228 T00171022 51008
KWVI 211353Z AUTO 00000KT 10SM OVC100 01/M02 A3019 RMK AO2 SLP225 T00111017
KWVI 211253Z AUTO 00000KT 10SM OVC090 02/M02 A3020 RMK AO2 SLP226 T00171017
KWVI 210753Z AUTO VRB03KT 10SM FEW100 03/M02 A3022 RMK AO2 SLP233 T00331017 401111011
KWVI 210653Z AUTO 30006KT 10SM CLR 03/M02 A3022 RMK AO2 SLP234 T00281017
KWVI 210553Z AUTO 32004KT 10SM FEW110 04/M01 A3022 RMK AO2 SLP236 T00391011 10100 20039 50007